Time;durP1;ratioP1;P1;durP2;ratioP2;P2;SDS_P1;SDS_P2;PMS_P1;PMS_P2;Temp;Humidity;BMP_temperature;BMP_pressure;BME280_temperature;BME280_humidity;BME280_pressure;Samples;Min_cycle;Max_cycle;Signal;HPM_P1;HPM_P2
2023/06/27 00:00:12;;;;;;;13.32;7.40;;;19.60;99.90;;;;;;4979636;28;20030;-68
2023/06/27 00:02:39;;;;;;;11.57;8.00;;;19.50;99.90;;;;;;4980113;28;20023;-68
2023/06/27 00:05:05;;;;;;;11.90;8.35;;;19.50;99.90;;;;;;4976113;28;20106;-68
2023/06/27 00:07:31;;;;;;;15.85;8.30;;;19.50;99.90;;;;;;4980004;28;20058;-68
2023/06/27 00:09:57;;;;;;;12.50;8.23;;;19.50;99.90;;;;;;4973683;28;20011;-68
2023/06/27 00:12:23;;;;;;;11.43;7.72;;;19.50;99.90;;;;;;4979919;28;20030;-68
2023/06/27 00:14:49;;;;;;;13.50;8.43;;;19.50;99.90;;;;;;5011117;28;20027;-68
2023/06/27 00:17:16;;;;;;;11.90;7.93;;;19.60;99.90;;;;;;4979871;28;20034;-68
2023/06/27 00:19:46;;;;;;;12.55;8.43;;;19.70;99.90;;;;;;4979911;28;20053;-68
2023/06/27 00:22:11;;;;;;;11.95;8.23;;;19.80;99.90;;;;;;4979821;28;20089;-68
2023/06/27 00:24:38;;;;;;;11.48;7.68;;;19.90;99.90;;;;;;4978435;28;20031;-68
2023/06/27 00:27:05;;;;;;;12.23;8.80;;;19.90;99.90;;;;;;4979609;28;20026;-68
2023/06/27 00:29:34;;;;;;;10.80;7.90;;;20.00;99.90;;;;;;4978221;28;20459;-68
2023/06/27 00:32:00;;;;;;;13.13;7.95;;;20.10;99.90;;;;;;4979666;28;20054;-68
2023/06/27 00:34:25;;;;;;;12.43;8.50;;;20.20;99.90;;;;;;4978707;28;20023;-68
2023/06/27 00:36:51;;;;;;;15.88;8.48;;;20.30;99.90;;;;;;4979650;28;20046;-68
2023/06/27 00:39:17;;;;;;;15.65;8.63;;;20.30;99.90;;;;;;4979575;28;20026;-68
2023/06/27 00:41:43;;;;;;;13.95;7.53;;;20.40;99.90;;;;;;4979282;28;20041;-68
2023/06/27 00:44:08;;;;;;;13.98;8.68;;;20.40;99.90;;;;;;4979268;28;20019;-69
2023/06/27 00:46:37;;;;;;;12.18;8.80;;;20.50;99.90;;;;;;4979314;28;20022;-68
2023/06/27 00:49:03;;;;;;;11.45;7.50;;;20.50;99.90;;;;;;4978164;28;20019;-68
2023/06/27 00:51:30;;;;;;;14.48;8.00;;;20.60;99.90;;;;;;4979213;28;20027;-68
2023/06/27 00:53:56;;;;;;;12.70;8.52;;;20.60;99.90;;;;;;4979411;28;20475;-68
2023/06/27 00:56:22;;;;;;;12.05;8.25;;;20.60;99.90;;;;;;4979183;28;20070;-68
2023/06/27 00:58:48;;;;;;;13.35;8.48;;;20.60;99.90;;;;;;4973761;28;20494;-68
2023/06/27 01:01:14;;;;;;;10.30;8.55;;;20.70;99.90;;;;;;4979037;28;20030;-68
2023/06/27 01:03:39;;;;;;;16.08;8.73;;;20.70;99.90;;;;;;4979052;28;20073;-68
2023/06/27 01:06:17;;;;;;;13.75;9.05;;;20.70;99.90;;;;;;4979081;28;20053;-68
2023/06/27 01:08:51;;;;;;;13.32;8.70;;;20.70;99.90;;;;;;4978996;28;20030;-68
2023/06/27 01:11:24;;;;;;;13.05;9.50;;;20.70;99.90;;;;;;4978913;28;20026;-68
2023/06/27 01:13:53;;;;;;;13.70;8.15;;;20.80;99.90;;;;;;4978551;28;20023;-68
2023/06/27 01:16:22;;;;;;;11.15;8.18;;;20.80;99.90;;;;;;4978722;28;20105;-68
2023/06/27 01:18:50;;;;;;;12.25;8.32;;;20.80;99.90;;;;;;4978789;28;20435;-68
2023/06/27 01:21:19;;;;;;;15.50;8.55;;;20.80;99.90;;;;;;5003344;28;20046;-68
2023/06/27 01:23:55;;;;;;;15.73;9.25;;;20.90;99.90;;;;;;4978642;28;20061;-68
2023/06/27 01:26:22;;;;;;;19.33;8.75;;;20.80;99.90;;;;;;4978560;28;20085;-68
2023/06/27 01:28:48;;;;;;;15.95;9.73;;;20.90;99.90;;;;;;4978677;28;20027;-68
2023/06/27 01:31:27;;;;;;;13.23;9.27;;;20.90;99.90;;;;;;4977281;28;20027;-68
2023/06/27 01:34:04;;;;;;;14.02;9.20;;;20.90;99.90;;;;;;4978574;28;20041;-68
2023/06/27 01:36:49;;;;;;;13.23;8.88;;;20.90;99.90;;;;;;4978555;28;20045;-68
2023/06/27 01:39:32;;;;;;;12.88;9.50;;;21.00;99.90;;;;;;4972755;28;20046;-68
2023/06/27 01:42:07;;;;;;;18.35;9.07;;;20.90;99.90;;;;;;4976971;28;20054;-68
2023/06/27 01:44:33;;;;;;;15.07;9.80;;;20.90;99.90;;;;;;4976682;28;20030;-68
2023/06/27 01:46:59;;;;;;;16.00;9.73;;;20.90;99.90;;;;;;4977852;28;20041;-68
2023/06/27 01:49:25;;;;;;;14.88;9.00;;;20.80;99.90;;;;;;4978303;28;20023;-68
2023/06/27 01:51:55;;;;;;;11.30;9.05;;;20.80;99.90;;;;;;4978179;28;20019;-68
2023/06/27 01:54:21;;;;;;;13.65;8.45;;;20.80;99.90;;;;;;4978180;28;20146;-68
2023/06/27 01:56:47;;;;;;;13.73;9.20;;;20.80;99.90;;;;;;4976759;28;20062;-68
2023/06/27 01:59:12;;;;;;;12.38;8.18;;;20.80;99.90;;;;;;4972352;28;20027;-68
2023/06/27 02:01:38;;;;;;;12.85;9.07;;;20.80;99.90;;;;;;4978113;28;20491;-68
2023/06/27 02:04:04;;;;;;;14.73;8.60;;;20.80;99.90;;;;;;4978050;28;20047;-68
2023/06/27 02:06:29;;;;;;;11.13;7.93;;;20.80;99.90;;;;;;4978005;28;20023;-68
2023/06/27 02:08:55;;;;;;;11.68;9.23;;;20.70;99.90;;;;;;4978309;28;20447;-68
2023/06/27 02:11:21;;;;;;;12.18;8.75;;;20.70;99.90;;;;;;4977855;28;20554;-68
2023/06/27 02:13:46;;;;;;;14.13;7.85;;;20.70;99.90;;;;;;4977774;28;20042;-68
2023/06/27 02:16:12;;;;;;;14.02;8.00;;;20.60;99.90;;;;;;4978004;28;20031;-68
2023/06/27 02:18:38;;;;;;;13.57;8.88;;;20.70;99.90;;;;;;4978209;28;20023;-67
2023/06/27 02:21:04;;;;;;;13.00;8.05;;;20.60;99.90;;;;;;4977915;28;20534;-68
2023/06/27 02:23:30;;;;;;;11.40;8.13;;;20.60;99.90;;;;;;5009174;28;20023;-68
2023/06/27 02:25:55;;;;;;;14.63;8.55;;;20.60;99.90;;;;;;4977650;28;20027;-68
2023/06/27 02:28:21;;;;;;;11.13;7.78;;;20.60;99.90;;;;;;4977609;28;20023;-68
2023/06/27 02:30:47;;;;;;;13.40;8.75;;;20.60;99.90;;;;;;4977882;28;20019;-68
2023/06/27 02:33:12;;;;;;;12.13;8.23;;;20.60;99.90;;;;;;4977942;28;20019;-68
2023/06/27 02:35:38;;;;;;;13.00;7.45;;;20.50;99.90;;;;;;4977784;28;20404;-68
2023/06/27 02:38:04;;;;;;;12.20;7.18;;;20.50;99.90;;;;;;4977879;28;20054;-68
2023/06/27 02:40:29;;;;;;;12.27;7.05;;;20.50;99.90;;;;;;4977706;28;20031;-68
2023/06/27 02:42:55;;;;;;;9.90;7.35;;;20.50;99.90;;;;;;4977782;28;20093;-68
2023/06/27 02:45:21;;;;;;;17.45;7.80;;;20.50;99.90;;;;;;4977430;28;20042;-68
2023/06/27 02:47:46;;;;;;;11.52;7.70;;;20.50;99.90;;;;;;4977705;28;20069;-68
2023/06/27 02:50:12;;;;;;;13.27;7.20;;;20.40;99.90;;;;;;4977705;28;20027;-68
2023/06/27 02:52:38;;;;;;;12.38;7.85;;;20.40;99.90;;;;;;4977546;28;20030;-68
2023/06/27 02:55:03;;;;;;;12.48;7.82;;;20.40;99.90;;;;;;4977455;28;20019;-68
2023/06/27 02:57:30;;;;;;;13.23;8.38;;;20.40;99.90;;;;;;5005439;28;20121;-68
2023/06/27 02:59:55;;;;;;;12.60;7.72;;;20.40;99.90;;;;;;4979101;28;20065;-68
2023/06/27 03:02:21;;;;;;;12.43;7.63;;;20.40;99.90;;;;;;5012100;28;20035;-68
2023/06/27 03:04:47;;;;;;;10.63;7.05;;;20.40;99.90;;;;;;4981039;28;20039;-68
2023/06/27 03:07:14;;;;;;;15.27;6.53;;;20.40;99.90;;;;;;4980386;28;20023;-68
2023/06/27 03:09:39;;;;;;;9.13;7.00;;;20.40;99.90;;;;;;4981100;28;20513;-68
2023/06/27 03:12:06;;;;;;;11.02;7.60;;;20.40;99.90;;;;;;4981120;28;20054;-68
2023/06/27 03:14:31;;;;;;;10.85;7.50;;;20.40;99.90;;;;;;4980763;28;20034;-68
2023/06/27 03:16:57;;;;;;;11.85;6.75;;;20.40;99.90;;;;;;4980968;28;20026;-68
2023/06/27 03:19:22;;;;;;;13.48;6.88;;;20.40;99.90;;;;;;4980848;28;20082;-68
2023/06/27 03:21:48;;;;;;;10.13;6.35;;;20.40;99.90;;;;;;5012212;28;20035;-68
2023/06/27 03:24:14;;;;;;;9.63;6.65;;;20.40;99.90;;;;;;5012074;28;20033;-68
2023/06/27 03:26:39;;;;;;;10.88;6.80;;;20.30;99.90;;;;;;4980694;28;20034;-68
2023/06/27 03:29:05;;;;;;;11.20;7.40;;;20.30;99.90;;;;;;4980446;28;20387;-68
2023/06/27 03:31:30;;;;;;;8.13;6.57;;;20.30;99.90;;;;;;4980855;28;20641;-69
2023/06/27 03:33:57;;;;;;;12.52;7.63;;;20.30;99.90;;;;;;4980808;28;20018;-68
2023/06/27 03:36:24;;;;;;;12.48;7.30;;;20.30;99.90;;;;;;4980997;28;20118;-68
2023/06/27 03:38:50;;;;;;;10.55;7.03;;;20.30;99.90;;;;;;4980656;28;20054;-68
2023/06/27 03:41:17;;;;;;;9.50;6.45;;;20.30;99.90;;;;;;4980532;28;20159;-68
2023/06/27 03:43:42;;;;;;;14.45;6.88;;;20.30;99.90;;;;;;4980411;28;20019;-68
2023/06/27 03:46:12;;;;;;;11.93;6.82;;;20.20;99.90;;;;;;4980520;28;20526;-68
2023/06/27 03:48:38;;;;;;;12.75;6.20;;;20.20;99.90;;;;;;4980690;28;20057;-68
2023/06/27 03:51:03;;;;;;;13.60;7.00;;;20.20;99.90;;;;;;4980498;28;20023;-68
2023/06/27 03:53:29;;;;;;;8.98;6.32;;;20.20;99.90;;;;;;4980305;28;20023;-68
2023/06/27 03:55:55;;;;;;;9.93;6.20;;;20.20;99.90;;;;;;4980281;28;20026;-68
2023/06/27 03:58:20;;;;;;;8.82;6.15;;;20.10;99.90;;;;;;4973976;28;20018;-68
2023/06/27 04:00:46;;;;;;;13.60;6.13;;;20.10;99.90;;;;;;4980264;28;20602;-68
2023/06/27 04:03:12;;;;;;;11.68;6.00;;;20.10;99.90;;;;;;4980320;28;20033;-68
2023/06/27 04:05:37;;;;;;;9.77;5.97;;;20.10;99.90;;;;;;4978775;28;20034;-68
2023/06/27 04:08:03;;;;;;;12.48;6.00;;;20.10;99.90;;;;;;4980142;28;20019;-68
2023/06/27 04:10:29;;;;;;;9.82;5.30;;;20.10;99.90;;;;;;4980013;28;20376;-68
2023/06/27 04:12:57;;;;;;;9.60;4.65;;;20.00;99.90;;;;;;4979928;28;20026;-68
2023/06/27 04:15:23;;;;;;;9.05;4.68;;;20.00;99.90;;;;;;4978467;28;20399;-68
2023/06/27 04:17:48;;;;;;;10.00;5.60;;;20.00;99.90;;;;;;4979790;28;20031;-68
2023/06/27 04:20:14;;;;;;;7.75;5.30;;;20.10;99.90;;;;;;4978476;28;20085;-68
2023/06/27 04:22:40;;;;;;;11.70;5.10;;;20.10;99.90;;;;;;4979818;28;20026;-68
2023/06/27 04:25:10;;;;;;;7.60;4.97;;;20.10;99.90;;;;;;4979889;28;20085;-68
2023/06/27 04:27:36;;;;;;;;;;;20.00;99.90;;;;;;4980080;28;20026;-68
2023/06/27 04:30:03;;;;;;;9.93;5.50;;;20.00;99.90;;;;;;4978132;28;19913;-68
2023/06/27 04:32:29;;;;;;;7.63;4.90;;;20.10;99.90;;;;;;4979659;28;20030;-68
2023/06/27 04:34:57;;;;;;;8.60;6.50;;;20.00;99.90;;;;;;4979717;28;20023;-68
2023/06/27 04:37:23;;;;;;;7.43;5.15;;;20.00;99.90;;;;;;4979584;28;20031;-68
2023/06/27 04:39:49;;;;;;;11.38;6.00;;;20.10;99.90;;;;;;4979531;28;20034;-68
2023/06/27 04:42:16;;;;;;;12.88;6.00;;;20.10;99.90;;;;;;4979160;28;20026;-68
2023/06/27 04:44:42;;;;;;;13.00;6.28;;;20.10;99.90;;;;;;4979132;28;20566;-68
2023/06/27 04:47:07;;;;;;;9.40;5.45;;;20.20;99.90;;;;;;4979335;28;20113;-68
2023/06/27 04:49:33;;;;;;;17.52;7.15;;;20.20;99.90;;;;;;4979350;28;20043;-68
2023/06/27 04:51:59;;;;;;;11.65;6.57;;;20.20;99.90;;;;;;4979370;28;20051;-68
2023/06/27 04:54:25;;;;;;;9.13;5.55;;;20.20;99.90;;;;;;4979459;28;20025;-68
2023/06/27 04:56:50;;;;;;;14.73;6.45;;;20.20;99.90;;;;;;4978995;28;20022;-68
2023/06/27 04:59:17;;;;;;;10.98;6.30;;;20.20;99.90;;;;;;4965933;28;20488;-68
2023/06/27 05:01:43;;;;;;;8.93;5.80;;;20.30;99.90;;;;;;4979125;28;20463;-68
2023/06/27 05:04:08;;;;;;;10.10;5.50;;;20.30;99.90;;;;;;5010290;28;20023;-68
2023/06/27 05:06:34;;;;;;;10.88;5.90;;;20.30;99.90;;;;;;5010166;28;20162;-68
2023/06/27 05:09:01;;;;;;;9.93;4.88;;;20.30;99.90;;;;;;4978900;28;20166;-68
2023/06/27 05:11:27;;;;;;;13.02;6.10;;;20.40;99.90;;;;;;4978822;28;20077;-68
2023/06/27 05:13:53;;;;;;;12.70;5.45;;;20.40;99.90;;;;;;4978580;28;20034;-68
2023/06/27 05:16:19;;;;;;;8.52;5.35;;;20.50;99.90;;;;;;4977584;28;20030;-68
2023/06/27 05:18:45;;;;;;;12.57;5.82;;;20.50;99.90;;;;;;4978670;28;20027;-68
2023/06/27 05:21:11;;;;;;;12.45;5.90;;;20.60;99.90;;;;;;4978055;28;20450;-68
2023/06/27 05:23:37;;;;;;;10.07;5.88;;;20.60;99.90;;;;;;4978187;28;20065;-69
2023/06/27 05:26:02;;;;;;;6.72;5.00;;;20.70;99.90;;;;;;4978601;28;20058;-68
2023/06/27 05:28:29;;;;;;;9.07;5.15;;;20.80;99.90;;;;;;4978294;28;20122;-68
2023/06/27 05:30:56;;;;;;;9.40;4.97;;;20.80;99.90;;;;;;4978673;28;20034;-68
2023/06/27 05:33:22;;;;;;;8.25;4.70;;;20.80;99.90;;;;;;4978398;28;20069;-68
2023/06/27 05:35:47;;;;;;;9.88;5.30;;;20.80;99.90;;;;;;4978740;28;20038;-68
2023/06/27 05:38:13;;;;;;;9.15;5.13;;;20.80;99.90;;;;;;4978210;28;20070;-68
2023/06/27 05:40:39;;;;;;;9.05;5.38;;;20.80;99.90;;;;;;4978546;28;20056;-68
2023/06/27 05:43:04;;;;;;;8.60;4.72;;;20.80;99.90;;;;;;4978196;28;20027;-67
2023/06/27 05:45:30;;;;;;;11.95;4.97;;;20.70;99.90;;;;;;4978370;28;20035;-68
2023/06/27 05:47:56;;;;;;;14.18;5.53;;;20.80;99.90;;;;;;4976920;28;20027;-68
2023/06/27 05:50:21;;;;;;;10.05;4.53;;;20.80;99.90;;;;;;4977815;28;20558;-68
2023/06/27 05:52:48;;;;;;;5.40;4.30;;;20.80;99.90;;;;;;4976903;28;20106;-68
2023/06/27 05:55:14;;;;;;;11.65;5.13;;;20.90;99.90;;;;;;4976735;28;20063;-68
2023/06/27 05:57:39;;;;;;;11.55;5.47;;;20.90;99.90;;;;;;4972817;28;20039;-68
2023/06/27 06:00:10;;;;;;;9.50;5.07;;;21.00;99.90;;;;;;4974679;28;20019;-68
2023/06/27 06:02:37;;;;;;;6.32;4.70;;;21.00;99.90;;;;;;4975614;28;20037;-67
2023/06/27 06:05:04;;;;;;;8.40;4.78;;;21.10;99.90;;;;;;4973961;28;20045;-68
2023/06/27 06:07:30;;;;;;;13.65;5.05;;;21.10;99.90;;;;;;4978116;28;20395;-67
2023/06/27 06:09:56;;;;;;;9.85;4.68;;;21.10;99.90;;;;;;4976826;28;20073;-67
2023/06/27 06:12:21;;;;;;;9.55;4.55;;;21.10;99.90;;;;;;4977919;28;20031;-67
2023/06/27 06:14:47;;;;;;;11.48;5.20;;;21.10;99.90;;;;;;4977431;28;20085;-67
2023/06/27 06:17:13;;;;;;;10.63;4.57;;;21.10;99.90;;;;;;4977828;28;20034;-68
2023/06/27 06:19:38;;;;;;;8.90;4.75;;;21.10;99.90;;;;;;4977950;28;20078;-68
2023/06/27 06:22:05;;;;;;;7.63;4.50;;;21.20;99.90;;;;;;4977868;28;20038;-67
2023/06/27 06:24:30;;;;;;;13.40;4.25;;;21.20;99.90;;;;;;4978039;28;20435;-68
2023/06/27 06:26:56;;;;;;;11.93;4.43;;;21.20;99.90;;;;;;4975096;28;20110;-67
2023/06/27 06:29:22;;;;;;;8.77;3.97;;;21.20;99.90;;;;;;4962433;28;20019;-68
2023/06/27 06:31:47;;;;;;;8.63;4.57;;;21.20;99.90;;;;;;4974031;28;20087;-67
2023/06/27 06:34:13;;;;;;;12.15;4.60;;;21.30;99.90;;;;;;4981639;28;20480;-67
2023/06/27 06:36:39;;;;;;;15.90;4.07;;;21.30;99.90;;;;;;4981569;28;20023;-67
2023/06/27 06:39:04;;;;;;;8.80;4.30;;;21.30;99.90;;;;;;4982039;28;20046;-67
2023/06/27 06:41:30;;;;;;;11.73;3.70;;;21.30;99.90;;;;;;4981351;28;20061;-67
2023/06/27 06:43:56;;;;;;;8.43;3.85;;;21.20;99.90;;;;;;4981827;28;20022;-67
2023/06/27 06:46:22;;;;;;;10.23;3.85;;;21.30;99.90;;;;;;4981426;28;20411;-66
2023/06/27 06:48:48;;;;;;;5.38;3.28;;;21.30;99.90;;;;;;5001202;28;20118;-67
2023/06/27 06:51:13;;;;;;;8.32;3.53;;;21.30;99.90;;;;;;4963708;28;20051;-67
2023/06/27 06:53:39;;;;;;;9.70;4.30;;;21.40;99.90;;;;;;4962653;28;20575;-67
2023/06/27 06:56:04;;;;;;;5.65;3.35;;;21.30;99.90;;;;;;4971175;28;20061;-67
2023/06/27 06:58:30;;;;;;;8.90;3.88;;;21.30;99.90;;;;;;4978126;28;20038;-67
2023/06/27 07:00:56;;;;;;;7.63;3.53;;;21.30;99.90;;;;;;5012304;28;20187;-67
2023/06/27 07:03:21;;;;;;;8.80;3.58;;;21.40;99.90;;;;;;4981211;28;20074;-67
2023/06/27 07:05:47;;;;;;;13.90;3.80;;;21.60;99.90;;;;;;4981226;28;20380;-67
2023/06/27 07:08:13;;;;;;;5.43;2.95;;;21.60;99.90;;;;;;4981296;28;20019;-67
2023/06/27 07:10:39;;;;;;;9.85;3.42;;;21.70;99.90;;;;;;4981022;28;20027;-67
2023/06/27 07:13:05;;;;;;;9.02;3.65;;;21.80;99.90;;;;;;4976213;28;20110;-67
2023/06/27 07:15:32;;;;;;;6.93;3.63;;;21.90;99.90;;;;;;4981034;28;20452;-67
2023/06/27 07:17:59;;;;;;;8.68;3.33;;;22.00;99.90;;;;;;4981093;28;20062;-67
2023/06/27 07:20:25;;;;;;;9.23;3.60;;;22.10;99.90;;;;;;4980685;28;20063;-67
2023/06/27 07:22:51;;;;;;;8.40;3.60;;;22.20;99.90;;;;;;4980957;28;20030;-67
2023/06/27 07:25:17;;;;;;;4.70;3.00;;;22.30;99.90;;;;;;4980644;28;20031;-67
2023/06/27 07:27:43;;;;;;;10.68;4.13;;;22.40;99.90;;;;;;4980684;28;20025;-68
2023/06/27 07:30:09;;;;;;;11.57;3.92;;;22.50;99.90;;;;;;4976186;28;20027;-67
2023/06/27 07:32:35;;;;;;;7.75;3.15;;;22.50;99.90;;;;;;4980789;28;20399;-67
2023/06/27 07:35:00;;;;;;;7.93;3.45;;;22.50;99.90;;;;;;4979550;28;20451;-67
2023/06/27 07:37:26;;;;;;;14.32;3.33;;;22.40;99.90;;;;;;4971365;28;20480;-68
2023/06/27 07:39:52;;;;;;;6.32;3.72;;;22.40;99.90;;;;;;4970229;28;20045;-67
2023/06/27 07:42:17;;;;;;;5.90;3.05;;;22.30;99.90;;;;;;4980746;28;20424;-67
2023/06/27 07:44:44;;;;;;;7.97;3.30;;;22.30;99.90;;;;;;4979849;28;20035;-67
2023/06/27 07:47:10;;;;;;;8.65;3.78;;;22.40;99.90;;;;;;4980667;28;20026;-67
2023/06/27 07:49:37;;;;;;;10.43;2.97;;;22.40;99.90;;;;;;4970224;28;20098;-67
2023/06/27 07:52:07;;;;;;;7.03;2.83;;;22.50;99.90;;;;;;4973737;28;20545;-67
2023/06/27 07:54:33;;;;;;;8.32;2.88;;;22.60;99.90;;;;;;4976307;28;20467;-67
2023/06/27 07:56:59;;;;;;;8.45;2.83;;;22.60;99.90;;;;;;4978948;28;20027;-66
2023/06/27 07:59:25;;;;;;;9.05;3.25;;;22.50;99.90;;;;;;4976563;28;20026;-67
2023/06/27 08:01:52;;;;;;;11.98;2.85;;;22.60;99.90;;;;;;4978855;28;20026;-68
2023/06/27 08:04:18;;;;;;;8.38;3.35;;;22.50;99.90;;;;;;4979242;28;20042;-67
2023/06/27 08:06:43;;;;;;;12.65;3.70;;;22.60;99.90;;;;;;4974458;28;20493;-67
2023/06/27 08:09:09;;;;;;;7.90;3.38;;;22.60;99.90;;;;;;4980477;28;20399;-67
2023/06/27 08:11:35;;;;;;;6.40;3.10;;;22.70;99.90;;;;;;4979831;28;20019;-67
2023/06/27 08:14:01;;;;;;;8.63;3.38;;;22.70;99.90;;;;;;5011133;28;20398;-66
2023/06/27 08:16:26;;;;;;;6.32;3.03;;;22.70;99.90;;;;;;4979972;28;20027;-67
2023/06/27 08:18:52;;;;;;;13.52;4.18;;;22.80;99.90;;;;;;4976037;28;20094;-67
2023/06/27 08:21:18;;;;;;;7.05;3.42;;;22.90;99.90;;;;;;4979781;28;20062;-66
2023/06/27 08:23:44;;;;;;;7.32;2.95;;;22.80;99.90;;;;;;4978672;28;20027;-67
2023/06/27 08:26:14;;;;;;;5.75;2.88;;;22.90;99.90;;;;;;4979633;28;20026;-67
2023/06/27 08:28:40;;;;;;;9.30;4.25;;;22.90;99.90;;;;;;4979726;28;20029;-67
2023/06/27 08:31:06;;;;;;;5.90;3.08;;;23.00;99.90;;;;;;4978416;28;20027;-67
2023/06/27 08:33:31;;;;;;;5.10;2.33;;;23.10;99.90;;;;;;4979911;28;20141;-67
2023/06/27 08:35:57;;;;;;;8.35;3.15;;;23.20;99.90;;;;;;4975124;28;20453;-67
2023/06/27 08:38:22;;;;;;;6.97;3.08;;;23.30;99.90;;;;;;4979813;28;20571;-67
2023/06/27 08:40:56;;;;;;;4.65;3.00;;;23.30;99.90;;;;;;4979311;28;20023;-66
2023/06/27 08:43:22;;;;;;;11.27;3.80;;;23.40;99.90;;;;;;4979418;28;20091;-67
2023/06/27 08:45:51;;;;;;;8.10;3.70;;;23.30;99.90;;;;;;4979213;28;20085;-67
2023/06/27 08:48:17;;;;;;;7.22;3.20;;;23.30;99.90;;;;;;4979503;28;20030;-67
2023/06/27 08:50:44;;;;;;;8.65;3.10;;;23.60;99.90;;;;;;4979257;28;20042;-68
2023/06/27 08:53:19;;;;;;;5.57;2.78;;;23.60;99.90;;;;;;4979390;28;20038;-67
2023/06/27 08:55:57;;;;;;;6.78;3.10;;;23.80;99.90;;;;;;4975767;28;20030;-67
2023/06/27 08:58:27;;;;;;;10.90;3.05;;;23.90;99.90;;;;;;4968739;28;20042;-68
2023/06/27 09:00:54;;;;;;;7.35;3.08;;;23.90;99.90;;;;;;5010498;28;20109;-67
2023/06/27 09:03:20;;;;;;;5.95;2.80;;;23.90;99.90;;;;;;4979144;28;20023;-67
2023/06/27 09:05:47;;;;;;;7.07;3.22;;;23.90;99.90;;;;;;4977670;28;20074;-67
2023/06/27 09:08:13;;;;;;;7.93;2.88;;;23.90;99.90;;;;;;4979010;28;20383;-67
2023/06/27 09:10:45;;;;;;;6.53;2.65;;;24.10;99.90;;;;;;4975860;28;20035;-67
2023/06/27 09:13:11;;;;;;;12.75;3.08;;;24.20;99.90;;;;;;4971785;28;20089;-68
2023/06/27 09:15:37;;;;;;;9.43;3.25;;;24.30;99.90;;;;;;4974400;28;20022;-67
2023/06/27 09:18:03;;;;;;;8.88;3.00;;;24.50;99.90;;;;;;4974825;28;20035;-67
2023/06/27 09:20:29;;;;;;;8.57;2.95;;;24.40;99.90;;;;;;4977754;28;20149;-67
2023/06/27 09:23:02;;;;;;;7.90;3.20;;;24.60;99.90;;;;;;4977682;28;20476;-67
2023/06/27 09:25:28;;;;;;;6.43;2.95;;;24.60;99.90;;;;;;4977757;28;20027;-67
2023/06/27 09:27:54;;;;;;;11.85;2.78;;;24.80;99.90;;;;;;4975704;28;20038;-67
2023/06/27 09:30:19;;;;;;;8.68;2.75;;;25.00;99.90;;;;;;4977718;28;20034;-68
2023/06/27 09:32:53;;;;;;;8.18;2.67;;;25.00;99.90;;;;;;4977192;28;20034;-67
2023/06/27 09:35:20;;;;;;;5.15;2.85;;;24.80;99.90;;;;;;4976956;28;20023;-67
2023/06/27 09:37:45;;;;;;;7.00;2.70;;;24.80;99.90;;;;;;4976882;28;20097;-67
2023/06/27 09:40:24;;;;;;;6.10;2.38;;;24.80;99.90;;;;;;4977429;28;20022;-67
2023/06/27 09:42:58;;;;;;;12.05;2.60;;;24.80;99.90;;;;;;4976986;28;20034;-68
2023/06/27 09:45:29;;;;;;;4.22;2.45;;;24.80;99.90;;;;;;4977452;28;20046;-67
2023/06/27 09:47:55;;;;;;;6.15;2.80;;;24.70;99.90;;;;;;4976411;28;20034;-67
2023/06/27 09:50:31;;;;;;;10.27;3.00;;;24.80;99.90;;;;;;4977587;28;20546;-67
2023/06/27 09:52:59;;;;;;;5.85;3.38;;;24.80;99.90;;;;;;4976086;28;20031;-68
2023/06/27 09:55:25;;;;;;;9.82;3.08;;;25.00;99.90;;;;;;4976465;28;20027;-67
2023/06/27 09:57:52;;;;;;;12.20;2.60;;;25.10;99.90;;;;;;4976038;28;20058;-66
2023/06/27 10:00:22;;;;;;;7.25;2.80;;;25.30;99.90;;;;;;4977265;28;20073;-66
2023/06/27 10:02:51;;;;;;;8.70;3.30;;;25.30;99.90;;;;;;4977065;28;20069;-67
2023/06/27 10:05:18;;;;;;;8.25;3.15;;;25.40;99.90;;;;;;4976300;28;20058;-67
2023/06/27 10:07:44;;;;;;;7.68;3.00;;;25.50;99.90;;;;;;4974475;28;20118;-67
2023/06/27 10:10:11;;;;;;;8.93;2.80;;;25.40;99.90;;;;;;4976534;28;20038;-67
2023/06/27 10:12:37;;;;;;;9.27;3.20;;;25.40;99.90;;;;;;4976226;28;20027;-67
2023/06/27 10:15:08;;;;;;;6.22;2.70;;;25.50;99.90;;;;;;4975951;28;20391;-67
2023/06/27 10:17:34;;;;;;;6.57;2.80;;;25.60;99.90;;;;;;4976323;28;20022;-67
2023/06/27 10:20:00;;;;;;;5.70;2.90;;;25.60;99.90;;;;;;4977032;28;20133;-67
2023/06/27 10:22:30;;;;;;;6.82;3.05;;;25.80;99.90;;;;;;4976804;28;20031;-66
2023/06/27 10:25:07;;;;;;;8.75;2.97;;;25.90;99.90;;;;;;4975378;28;20034;-67
2023/06/27 10:27:35;;;;;;;4.47;2.85;;;25.70;99.90;;;;;;4972453;28;20041;-66
2023/06/27 10:30:28;;;;;;;4.55;2.53;;;25.50;99.90;;;;;;4976178;28;20440;-67
2023/06/27 10:33:19;;;;;;;5.63;2.78;;;25.60;99.90;;;;;;4973529;28;20031;-66
2023/06/27 10:35:55;;;;;;;7.07;2.85;;;25.70;99.90;;;;;;4973045;28;20109;-67
2023/06/27 10:38:21;;;;;;;9.75;2.55;;;25.80;99.90;;;;;;4976082;28;20095;-66
2023/06/27 10:41:09;;;;;;;6.53;3.55;;;25.90;99.90;;;;;;4976525;28;20451;-67
2023/06/27 10:43:39;;;;;;;12.45;3.70;;;26.10;99.90;;;;;;4973517;28;20027;-67
2023/06/27 10:46:06;;;;;;;6.38;2.90;;;26.20;99.90;;;;;;4974818;28;20031;-67
2023/06/27 10:48:49;;;;;;;5.70;2.92;;;26.60;99.90;;;;;;4969300;28;20093;-67
2023/06/27 10:51:19;;;;;;;8.52;2.80;;;27.00;99.90;;;;;;4974209;28;20403;-66
2023/06/27 10:54:08;;;;;;;8.20;2.95;;;26.90;99.90;;;;;;4976431;28;20030;-68
2023/06/27 10:56:38;;;;;;;5.55;2.58;;;26.80;99.90;;;;;;4975797;28;20027;-67
2023/06/27 10:59:04;;;;;;;;;;;26.70;99.90;;;;;;4973531;28;20042;-67
2023/06/27 11:01:31;;;;;;;10.10;2.88;;;26.60;99.90;;;;;;4976890;28;19906;-67
2023/06/27 11:03:57;;;;;;;10.65;3.47;;;26.40;99.90;;;;;;4975983;28;20031;-67
2023/06/27 11:06:42;;;;;;;11.27;4.13;;;26.10;99.90;;;;;;4975068;28;20396;-67
2023/06/27 11:09:18;;;;;;;5.25;2.53;;;26.10;99.90;;;;;;4973866;28;20050;-67
2023/06/27 11:12:14;;;;;;;8.90;3.05;;;26.30;99.90;;;;;;4976410;28;20023;-67
2023/06/27 11:14:44;;;;;;;6.13;3.10;;;26.70;99.90;;;;;;4973946;28;20102;-67
2023/06/27 11:17:11;;;;;;;6.35;3.20;;;26.90;99.90;;;;;;4975243;28;20508;-67
2023/06/27 11:19:39;;;;;;;5.30;3.03;;;26.80;99.90;;;;;;4978278;28;20043;-67
2023/06/27 11:22:05;;;;;;;7.72;3.60;;;26.60;99.90;;;;;;4980108;28;20023;-66
2023/06/27 11:24:32;;;;;;;6.80;3.33;;;26.70;99.90;;;;;;4979927;28;20106;-67
2023/06/27 11:26:59;;;;;;;4.82;2.75;;;26.80;99.90;;;;;;4977793;28;20019;-67
2023/06/27 11:29:25;;;;;;;13.65;3.17;;;27.00;99.90;;;;;;4979567;28;20415;-67
2023/06/27 11:31:54;;;;;;;5.85;3.03;;;27.30;99.90;;;;;;4979883;28;20011;-67
2023/06/27 11:34:20;;;;;;;7.05;3.45;;;27.20;99.90;;;;;;4979654;28;20014;-67
2023/06/27 11:36:46;;;;;;;6.10;2.85;;;27.20;99.90;;;;;;4978844;28;20049;-67
2023/06/27 11:39:12;;;;;;;8.07;3.90;;;27.20;99.90;;;;;;4979780;28;20030;-67
2023/06/27 11:41:42;;;;;;;7.72;3.20;;;27.40;99.90;;;;;;4979601;28;20023;-67
2023/06/27 11:44:16;;;;;;;11.20;3.75;;;27.50;99.90;;;;;;4978069;28;20178;-67
2023/06/27 11:46:51;;;;;;;9.55;3.35;;;27.80;99.90;;;;;;4977591;28;20039;-67
2023/06/27 11:49:21;;;;;;;7.53;2.83;;;27.50;99.90;;;;;;4979049;28;20034;-67
2023/06/27 11:51:47;;;;;;;5.60;3.30;;;27.40;99.90;;;;;;4979591;28;20030;-67
2023/06/27 11:54:19;;;;;;;6.20;2.70;;;27.40;99.90;;;;;;4979235;28;20031;-67
2023/06/27 11:56:45;;;;;;;8.55;2.95;;;27.30;99.90;;;;;;4977276;28;20048;-67
2023/06/27 11:59:12;;;;;;;7.63;3.28;;;27.40;99.90;;;;;;4978149;28;20062;-67
2023/06/27 12:01:45;;;;;;;5.10;2.72;;;27.30;99.90;;;;;;4972175;28;20019;-68
2023/06/27 12:04:18;;;;;;;5.70;3.03;;;27.30;99.90;;;;;;4976924;28;20475;-67
2023/06/27 12:06:48;;;;;;;6.18;3.13;;;27.50;99.90;;;;;;4976753;28;20469;-67
2023/06/27 12:09:28;;;;;;;6.80;2.85;;;27.50;99.90;;;;;;5009352;28;20582;-67
2023/06/27 12:11:58;;;;;;;10.00;3.10;;;27.60;99.90;;;;;;4978164;28;20023;-67
2023/06/27 12:14:25;;;;;;;5.57;3.38;;;27.40;99.90;;;;;;4976848;28;20479;-67
2023/06/27 12:16:51;;;;;;;9.63;3.20;;;27.40;99.90;;;;;;4976214;28;20078;-67
2023/06/27 12:19:21;;;;;;;11.43;3.70;;;27.60;99.90;;;;;;4976764;28;20031;-67
2023/06/27 12:21:49;;;;;;;5.68;3.63;;;27.90;99.90;;;;;;4978610;28;20022;-67
2023/06/27 12:24:15;;;;;;;6.20;2.60;;;28.10;99.90;;;;;;4978069;28;20070;-67
2023/06/27 12:26:40;;;;;;;4.53;2.90;;;28.20;99.90;;;;;;4977586;28;20074;-68
2023/06/27 12:29:07;;;;;;;8.05;3.15;;;28.00;99.90;;;;;;4977108;28;20031;-67
2023/06/27 12:31:35;;;;;;;7.57;3.10;;;27.60;99.90;;;;;;4979020;28;20026;-67
2023/06/27 12:34:01;;;;;;;8.32;3.05;;;27.30;99.90;;;;;;4978778;28;20564;-67
2023/06/27 12:36:27;;;;;;;5.57;2.80;;;27.50;99.90;;;;;;4977942;28;20027;-65
2023/06/27 12:38:53;;;;;;;7.53;2.97;;;27.50;99.90;;;;;;4976065;28;20031;-67
2023/06/27 12:41:20;;;;;;;4.70;3.25;;;27.60;99.90;;;;;;4978797;28;20022;-67
2023/06/27 12:43:46;;;;;;;7.32;3.47;;;27.70;99.90;;;;;;4978201;28;20114;-67